Time;durP1;ratioP1;P1;durP2;ratioP2;P2;SDS_P1;SDS_P2;PMS_P1;PMS_P2;Temp;Humidity;BMP_temperature;BMP_pressure;BME280_temperature;BME280_humidity;BME280_pressure;Samples;Min_cycle;Max_cycle;Signal;HPM_P1;HPM_P2
2022/10/30 00:00:27;;;;;;;24.30;15.88;;;12.20;99.90;;;;;;5115689;28;20060;-72
2022/10/30 00:02:52;;;;;;;31.17;16.67;;;12.20;99.90;;;;;;5116451;28;20059;-74
2022/10/30 00:05:19;;;;;;;25.52;16.88;;;12.20;99.90;;;;;;5115966;28;20384;-74
2022/10/30 00:07:49;;;;;;;30.92;17.90;;;12.20;99.90;;;;;;5115832;28;20455;-76
2022/10/30 00:10:15;;;;;;;23.45;15.98;;;12.20;99.90;;;;;;5113664;28;20122;-72
2022/10/30 00:12:42;;;;;;;28.73;16.10;;;12.20;99.90;;;;;;5116163;28;20028;-72
2022/10/30 00:15:08;;;;;;;29.10;16.90;;;12.20;99.90;;;;;;5115648;28;20034;-73
2022/10/30 00:17:34;;;;;;;30.40;16.83;;;12.20;99.90;;;;;;5116148;28;20077;-73
2022/10/30 00:19:59;;;;;;;24.33;15.45;;;12.10;99.90;;;;;;5116239;27;20404;-74
2022/10/30 00:22:25;;;;;;;22.42;14.90;;;12.20;99.90;;;;;;5115571;28;20054;-74
2022/10/30 00:24:51;;;;;;;20.50;14.10;;;12.20;99.90;;;;;;5116031;27;20047;-73
2022/10/30 00:27:17;;;;;;;24.35;15.20;;;12.20;99.90;;;;;;5115646;28;20077;-73
2022/10/30 00:29:43;;;;;;;24.17;15.32;;;12.20;99.90;;;;;;5115929;28;20035;-73
2022/10/30 00:32:09;;;;;;;31.40;15.80;;;12.10;99.90;;;;;;5114306;28;20035;-74
2022/10/30 00:34:35;;;;;;;25.92;14.65;;;12.10;99.90;;;;;;5115858;28;20047;-73
2022/10/30 00:37:00;;;;;;;26.17;15.35;;;12.10;99.90;;;;;;5115763;28;20115;-74
2022/10/30 00:39:26;;;;;;;27.17;13.70;;;12.10;99.90;;;;;;5115100;28;20035;-73
2022/10/30 00:41:51;;;;;;;18.58;12.90;;;12.10;99.90;;;;;;5115677;28;20077;-73
2022/10/30 00:44:49;;;;;;;19.30;13.18;;;12.10;99.90;;;;;;5116060;28;20028;-74
2022/10/30 00:47:29;;;;;;;16.90;12.70;;;12.10;99.90;;;;;;5115473;27;20028;-74
2022/10/30 00:50:01;;;;;;;23.30;13.20;;;12.10;99.90;;;;;;5115503;28;20038;-73
2022/10/30 00:52:32;;;;;;;21.40;12.60;;;12.10;99.90;;;;;;5115003;28;20036;-73
2022/10/30 00:55:06;;;;;;;23.20;12.85;;;12.10;99.90;;;;;;5115750;28;20043;-73
2022/10/30 00:57:33;;;;;;;18.63;11.93;;;12.10;99.90;;;;;;5115008;28;20031;-73
2022/10/30 00:59:59;;;;;;;16.52;12.18;;;12.00;99.90;;;;;;5115184;28;20024;-73
2022/10/30 01:02:25;;;;;;;20.73;11.68;;;12.00;99.90;;;;;;5114166;28;20103;-73
2022/10/30 01:04:53;;;;;;;22.77;12.15;;;12.10;99.90;;;;;;5115271;28;20122;-74
2022/10/30 01:07:19;;;;;;;20.95;12.45;;;12.10;99.90;;;;;;5114466;28;20031;-73
2022/10/30 01:09:46;;;;;;;19.77;11.98;;;12.10;99.90;;;;;;5115402;28;20043;-73
2022/10/30 01:12:13;;;;;;;17.75;12.40;;;12.10;99.90;;;;;;5114768;27;20031;-74
2022/10/30 01:14:43;;;;;;;20.83;12.00;;;12.00;99.90;;;;;;5115009;28;20027;-73
2022/10/30 01:17:24;;;;;;;19.35;12.30;;;12.10;99.90;;;;;;5114745;28;20069;-78
2022/10/30 01:20:21;;;;;;;23.77;12.48;;;12.10;99.90;;;;;;5115025;28;20122;-73
2022/10/30 01:23:15;;;;;;;16.10;10.90;;;12.10;99.90;;;;;;5105790;28;20097;-73
2022/10/30 01:25:49;;;;;;;15.52;11.50;;;12.00;99.90;;;;;;5114663;28;20528;-73
2022/10/30 01:28:47;;;;;;;15.43;10.93;;;12.10;99.90;;;;;;5114337;28;20035;-73
2022/10/30 01:31:28;;;;;;;18.80;11.25;;;12.00;99.90;;;;;;5090600;28;20042;-74
2022/10/30 01:34:15;;;;;;;21.70;11.45;;;12.00;99.90;;;;;;5114309;28;20043;-73
2022/10/30 01:37:00;;;;;;;22.95;11.98;;;12.00;99.90;;;;;;5114409;28;20484;-74
2022/10/30 01:39:32;;;;;;;18.83;12.10;;;12.00;99.90;;;;;;5114092;28;20024;-73
2022/10/30 01:41:58;;;;;;;21.63;12.45;;;12.00;99.90;;;;;;5114553;27;20031;-72
2022/10/30 01:44:31;;;;;;;21.33;12.30;;;12.00;99.90;;;;;;5113792;28;20027;-73
2022/10/30 01:47:09;;;;;;;28.58;12.93;;;12.00;99.90;;;;;;5114656;28;20050;-73
2022/10/30 01:50:05;;;;;;;19.92;13.10;;;12.00;99.90;;;;;;5114008;28;20028;-73
2022/10/30 01:52:42;;;;;;;17.92;12.43;;;12.00;99.90;;;;;;5113315;28;20031;-73
2022/10/30 01:55:32;;;;;;;18.92;12.85;;;12.00;99.90;;;;;;5113847;28;20106;-73
2022/10/30 01:58:16;;;;;;;20.35;12.90;;;12.00;99.90;;;;;;5114138;28;20020;-73
2022/10/30 02:00:44;;;;;;;24.75;12.85;;;12.00;99.90;;;;;;5113863;28;20066;-72
2022/10/30 02:03:10;;;;;;;20.15;13.20;;;12.00;99.90;;;;;;5113619;28;20054;-73
2022/10/30 02:05:40;;;;;;;20.23;13.02;;;12.00;99.90;;;;;;5113885;28;20062;-73
2022/10/30 02:08:06;;;;;;;23.67;13.52;;;12.00;99.90;;;;;;5113820;28;20480;-72
2022/10/30 02:10:37;;;;;;;18.73;13.02;;;12.00;99.90;;;;;;5113554;28;20087;-72
2022/10/30 02:13:03;;;;;;;21.70;13.32;;;12.00;99.90;;;;;;5113220;28;20027;-72
2022/10/30 02:15:30;;;;;;;25.10;13.27;;;12.00;99.90;;;;;;5113395;28;20428;-73
2022/10/30 02:17:56;;;;;;;17.02;12.13;;;12.00;99.90;;;;;;5113864;28;20024;-72
2022/10/30 02:20:23;;;;;;;20.75;13.02;;;11.90;99.90;;;;;;5113137;28;20148;-72
2022/10/30 02:22:49;;;;;;;19.13;12.57;;;12.00;99.90;;;;;;5113707;28;20099;-72
2022/10/30 02:25:15;;;;;;;15.45;11.70;;;11.90;99.90;;;;;;5113519;28;20035;-74
2022/10/30 02:27:41;;;;;;;16.52;11.88;;;11.90;99.90;;;;;;5113823;28;20165;-73
2022/10/30 02:30:08;;;;;;;15.27;11.23;;;11.90;99.90;;;;;;5113646;28;20068;-73
2022/10/30 02:32:34;;;;;;;18.38;11.95;;;11.90;99.90;;;;;;5112662;28;20052;-72
2022/10/30 02:34:59;;;;;;;15.93;11.63;;;11.90;99.90;;;;;;5113652;28;20059;-72
2022/10/30 02:37:26;;;;;;;15.70;11.40;;;11.90;99.90;;;;;;5112938;28;20024;-72
2022/10/30 02:39:52;;;;;;;16.10;11.23;;;11.90;99.90;;;;;;5113344;28;20034;-72
2022/10/30 02:42:17;;;;;;;16.40;11.95;;;11.90;99.90;;;;;;5113159;28;20383;-73
2022/10/30 02:44:43;;;;;;;16.60;12.43;;;12.00;99.90;;;;;;5112367;28;20023;-73
2022/10/30 02:47:09;;;;;;;19.27;12.75;;;12.00;99.90;;;;;;5113247;28;20464;-73
2022/10/30 02:49:35;;;;;;;21.42;12.50;;;12.00;99.90;;;;;;5111586;28;20300;-72
2022/10/30 02:52:01;;;;;;;25.05;13.65;;;12.00;99.90;;;;;;5113714;28;20034;-72
2022/10/30 02:54:26;;;;;;;19.85;12.98;;;12.00;99.90;;;;;;5112879;28;20039;-73
2022/10/30 02:56:52;;;;;;;24.73;13.15;;;12.00;99.90;;;;;;5113174;28;20067;-72
2022/10/30 02:59:19;;;;;;;20.67;13.18;;;11.90;99.90;;;;;;5112902;28;20031;-72
2022/10/30 03:01:45;;;;;;;22.15;13.02;;;11.90;99.90;;;;;;5113074;28;20524;-73
2022/10/30 03:04:10;;;;;;;21.88;12.85;;;11.90;99.90;;;;;;5113220;28;20102;-73
2022/10/30 03:06:36;;;;;;;20.15;13.23;;;11.90;99.90;;;;;;5112612;28;20058;-73
2022/10/30 03:09:02;;;;;;;21.00;13.60;;;11.90;99.90;;;;;;5113119;28;20102;-73
2022/10/30 03:11:27;;;;;;;22.20;13.68;;;11.90;99.90;;;;;;5112557;28;20356;-74
2022/10/30 03:13:53;;;;;;;22.92;12.85;;;11.90;99.90;;;;;;5113375;28;20059;-73
2022/10/30 03:16:22;;;;;;;21.65;14.30;;;11.90;99.90;;;;;;5112448;28;20036;-74
2022/10/30 03:18:49;;;;;;;22.33;14.48;;;11.90;99.90;;;;;;5111287;28;20103;-74
2022/10/30 03:21:18;;;;;;;22.50;13.10;;;11.90;99.90;;;;;;5111379;28;20437;-73
2022/10/30 03:23:44;;;;;;;20.48;13.07;;;11.90;99.90;;;;;;5112382;28;20039;-74
2022/10/30 03:26:10;;;;;;;19.55;12.98;;;11.90;99.90;;;;;;5115836;28;20019;-73
2022/10/30 03:28:36;;;;;;;19.27;12.88;;;11.90;99.90;;;;;;5115208;28;20020;-73
2022/10/30 03:31:04;;;;;;;19.65;13.90;;;11.90;99.90;;;;;;5115672;28;20059;-73
2022/10/30 03:33:30;;;;;;;20.17;13.10;;;11.90;99.90;;;;;;5113769;28;20074;-72
2022/10/30 03:35:56;;;;;;;21.85;12.77;;;11.90;99.90;;;;;;5115546;28;20027;-72
2022/10/30 03:38:22;;;;;;;17.77;12.73;;;11.90;99.90;;;;;;5114025;28;20027;-73
2022/10/30 03:40:48;;;;;;;19.58;12.55;;;11.90;99.90;;;;;;5115145;28;20057;-74
2022/10/30 03:43:13;;;;;;;23.20;13.43;;;12.00;99.90;;;;;;5115834;28;20054;-73
2022/10/30 03:45:39;;;;;;;23.33;13.85;;;12.00;99.90;;;;;;5115019;28;20493;-73
2022/10/30 03:48:05;;;;;;;24.25;13.40;;;12.00;99.90;;;;;;5115382;28;20040;-74
2022/10/30 03:50:31;;;;;;;19.08;13.32;;;11.90;99.90;;;;;;5113613;28;20020;-73
2022/10/30 03:52:57;;;;;;;31.38;13.77;;;11.90;99.90;;;;;;5115502;28;20078;-73
2022/10/30 03:55:24;;;;;;;21.48;14.18;;;11.90;99.90;;;;;;5115775;28;20460;-72
2022/10/30 03:57:50;;;;;;;24.38;15.40;;;11.90;99.90;;;;;;5115273;28;20026;-72
2022/10/30 04:00:17;;;;;;;23.08;13.57;;;11.90;99.90;;;;;;5116502;27;20020;-73
2022/10/30 04:02:47;;;;;;;23.70;14.40;;;11.90;99.90;;;;;;5115847;28;20032;-73
2022/10/30 04:05:14;;;;;;;19.98;13.43;;;11.90;99.90;;;;;;5116088;28;20036;-73
2022/10/30 04:07:40;;;;;;;22.25;14.20;;;11.90;99.90;;;;;;5115324;28;20470;-73
2022/10/30 04:10:06;;;;;;;20.10;13.95;;;11.90;99.90;;;;;;5117115;28;20051;-73
2022/10/30 04:12:31;;;;;;;23.50;14.25;;;11.90;99.90;;;;;;5116411;28;20106;-72
2022/10/30 04:14:57;;;;;;;22.33;14.02;;;11.90;99.90;;;;;;5116450;28;20051;-72
2022/10/30 04:17:23;;;;;;;21.73;15.18;;;11.90;99.90;;;;;;5115773;28;20027;-72
2022/10/30 04:19:48;;;;;;;25.35;15.40;;;11.90;99.90;;;;;;5115474;28;20030;-72
2022/10/30 04:22:14;;;;;;;19.95;13.55;;;11.90;99.90;;;;;;5114970;28;20114;-72
2022/10/30 04:24:40;;;;;;;20.52;13.00;;;11.90;99.90;;;;;;5115934;28;20024;-73
2022/10/30 04:27:05;;;;;;;18.25;13.30;;;12.00;99.90;;;;;;5115753;28;20039;-72
2022/10/30 04:29:31;;;;;;;26.02;13.40;;;11.90;99.90;;;;;;5115291;28;20024;-72
2022/10/30 04:31:57;;;;;;;18.30;13.13;;;11.90;99.90;;;;;;5115862;28;20460;-74
2022/10/30 04:34:22;;;;;;;20.00;12.93;;;12.00;99.90;;;;;;5115740;28;20384;-78
2022/10/30 04:36:48;;;;;;;22.85;13.48;;;12.00;99.90;;;;;;5114783;28;20377;-71
2022/10/30 04:39:13;;;;;;;20.15;14.02;;;12.00;99.90;;;;;;5115780;28;20434;-72
2022/10/30 04:41:39;;;;;;;26.50;13.85;;;12.00;99.90;;;;;;5115410;28;20024;-73
2022/10/30 04:44:05;;;;;;;18.92;13.95;;;12.00;99.90;;;;;;5115811;28;20031;-73
2022/10/30 04:46:31;;;;;;;20.80;13.82;;;12.00;99.90;;;;;;5115279;28;20024;-72
2022/10/30 04:48:57;;;;;;;23.95;14.00;;;12.00;99.90;;;;;;5115819;28;20031;-73
2022/10/30 04:51:23;;;;;;;19.23;14.10;;;12.00;99.90;;;;;;5115525;28;20023;-73
2022/10/30 04:53:49;;;;;;;28.75;13.02;;;12.00;99.90;;;;;;5115302;28;20092;-72
2022/10/30 04:56:15;;;;;;;24.55;13.70;;;11.90;99.90;;;;;;5115365;28;20456;-72
2022/10/30 04:58:41;;;;;;;22.20;14.13;;;11.90;99.90;;;;;;5115001;28;20039;-72
2022/10/30 05:01:07;;;;;;;20.45;14.20;;;11.90;99.90;;;;;;5115262;28;20031;-72
2022/10/30 05:03:33;;;;;;;30.50;13.07;;;11.90;99.90;;;;;;5114926;28;20103;-72
2022/10/30 05:06:05;;;;;;;23.15;14.02;;;12.00;99.90;;;;;;5115286;28;20039;-72
2022/10/30 05:08:32;;;;;;;18.35;12.75;;;12.00;99.90;;;;;;5114879;28;20031;-72
2022/10/30 05:10:58;;;;;;;30.60;14.07;;;12.00;99.90;;;;;;5115166;28;20016;-74
2022/10/30 05:13:23;;;;;;;23.83;13.98;;;12.00;99.90;;;;;;5115180;27;20054;-74
2022/10/30 05:15:49;;;;;;;35.20;14.82;;;12.00;99.90;;;;;;5115238;28;20071;-75
2022/10/30 05:18:15;;;;;;;41.88;13.77;;;12.00;99.90;;;;;;5114722;28;20031;-74
2022/10/30 05:20:42;;;;;;;36.58;13.38;;;12.00;99.90;;;;;;5114617;28;20030;-74
2022/10/30 05:23:08;;;;;;;38.00;13.75;;;12.00;99.90;;;;;;5114892;28;20072;-74
2022/10/30 05:25:34;;;;;;;39.88;13.95;;;12.00;99.90;;;;;;5114506;28;20028;-73
2022/10/30 05:28:01;;;;;;;35.05;13.63;;;12.00;99.90;;;;;;5114912;28;20026;-74
2022/10/30 05:30:29;;;;;;;24.90;13.27;;;12.10;99.90;;;;;;5114444;28;20472;-78
2022/10/30 05:33:02;;;;;;;38.88;13.48;;;12.10;99.90;;;;;;5114660;28;20055;-74
2022/10/30 05:35:31;;;;;;;43.35;12.10;;;12.00;99.90;;;;;;5114385;28;20054;-75
2022/10/30 05:37:57;;;;;;;32.70;12.55;;;12.00;99.90;;;;;;5114660;28;20073;-73
2022/10/30 05:40:23;;;;;;;30.30;13.40;;;12.00;99.90;;;;;;5126032;27;20027;-74
2022/10/30 05:42:49;;;;;;;41.45;12.93;;;12.00;99.90;;;;;;5135065;27;20508;-74
2022/10/30 05:45:16;;;;;;;31.00;13.43;;;12.00;99.90;;;;;;5135599;27;20115;-73
2022/10/30 05:47:41;;;;;;;25.27;13.57;;;12.00;99.90;;;;;;5134473;27;20046;-74
2022/10/30 05:50:08;;;;;;;25.77;13.00;;;12.00;99.90;;;;;;5135072;27;20054;-74
2022/10/30 05:52:34;;;;;;;19.98;13.30;;;12.00;99.90;;;;;;5134845;27;20476;-74
2022/10/30 05:54:59;;;;;;;21.02;11.93;;;12.00;99.90;;;;;;5134835;27;20055;-74
2022/10/30 05:57:29;;;;;;;20.75;13.30;;;12.00;99.90;;;;;;5134685;27;20098;-73
2022/10/30 05:59:55;;;;;;;18.98;13.30;;;12.00;99.90;;;;;;5113863;27;20024;-73
2022/10/30 06:02:21;;;;;;;22.40;13.05;;;12.00;99.90;;;;;;5113431;28;20027;-73
2022/10/30 06:04:47;;;;;;;19.60;13.43;;;12.00;99.90;;;;;;5113360;28;20456;-73
2022/10/30 06:07:13;;;;;;;29.30;12.65;;;12.00;99.90;;;;;;5114016;28;20027;-73
2022/10/30 06:09:38;;;;;;;25.95;13.23;;;12.00;99.90;;;;;;5113911;28;20035;-73
2022/10/30 06:12:04;;;;;;;26.70;12.57;;;12.00;99.90;;;;;;5113601;28;20026;-72
2022/10/30 06:14:30;;;;;;;21.92;12.20;;;12.00;99.90;;;;;;5113993;28;20375;-73
2022/10/30 06:16:55;;;;;;;26.50;12.88;;;12.00;99.90;;;;;;5113126;28;20116;-73
2022/10/30 06:19:23;;;;;;;29.83;12.32;;;12.00;99.90;;;;;;5113914;28;20114;-74
2022/10/30 06:21:49;;;;;;;20.10;11.77;;;12.10;99.90;;;;;;5113118;28;20020;-73
2022/10/30 06:24:14;;;;;;;21.45;11.88;;;12.10;99.90;;;;;;5113755;28;20356;-74
2022/10/30 06:26:40;;;;;;;24.15;11.82;;;12.10;99.90;;;;;;5113355;28;20494;-73
2022/10/30 06:29:06;;;;;;;21.17;12.18;;;12.10;99.90;;;;;;5113919;28;20042;-73
2022/10/30 06:31:31;;;;;;;22.02;12.05;;;12.10;99.90;;;;;;5113686;28;20115;-73
2022/10/30 06:33:58;;;;;;;29.88;13.00;;;12.10;99.90;;;;;;5112554;28;20036;-73
2022/10/30 06:36:23;;;;;;;30.50;12.70;;;12.10;99.90;;;;;;5113162;28;20073;-73
2022/10/30 06:38:49;;;;;;;20.05;12.00;;;12.00;99.90;;;;;;5112780;28;20024;-73
2022/10/30 06:41:14;;;;;;;17.88;11.75;;;12.00;99.90;;;;;;5113028;28;20026;-74
2022/10/30 06:43:40;;;;;;;25.50;12.60;;;12.10;99.90;;;;;;5112334;28;20019;-73
2022/10/30 06:46:06;;;;;;;19.23;11.93;;;12.00;99.90;;;;;;5111662;28;20034;-73
2022/10/30 06:48:31;;;;;;;17.23;11.43;;;12.10;99.90;;;;;;5112927;28;20030;-73
2022/10/30 06:50:58;;;;;;;17.73;10.85;;;12.10;99.90;;;;;;5112928;28;20030;-72
2022/10/30 06:53:24;;;;;;;17.52;10.60;;;12.10;99.90;;;;;;5113076;28;20102;-72
2022/10/30 06:55:58;;;;;;;16.88;10.07;;;12.10;99.90;;;;;;5112770;28;20070;-73
2022/10/30 06:58:23;;;;;;;16.00;9.82;;;12.00;99.90;;;;;;5112820;28;20059;-73
2022/10/30 07:00:49;;;;;;;14.50;9.68;;;12.00;99.90;;;;;;5112868;28;20074;-73
2022/10/30 07:03:15;;;;;;;12.13;9.40;;;12.10;99.90;;;;;;5113173;28;20384;-73
2022/10/30 07:05:41;;;;;;;12.52;9.27;;;12.00;99.90;;;;;;5128122;28;20030;-74
2022/10/30 07:08:06;;;;;;;14.57;8.82;;;12.00;99.90;;;;;;5133460;28;20023;-74
2022/10/30 07:10:32;;;;;;;13.73;9.40;;;12.00;99.90;;;;;;5133742;28;20023;-73
2022/10/30 07:12:58;;;;;;;18.17;8.90;;;12.00;99.90;;;;;;5133115;28;20027;-73
2022/10/30 07:15:24;;;;;;;20.27;8.93;;;12.00;99.90;;;;;;5133635;28;20039;-72
2022/10/30 07:18:00;;;;;;;19.50;9.02;;;12.00;99.90;;;;;;5133283;27;20045;-72
2022/10/30 07:20:28;;;;;;;12.40;8.82;;;12.00;99.90;;;;;;5111984;27;20122;-73
2022/10/30 07:22:54;;;;;;;14.35;8.80;;;12.00;99.90;;;;;;5112422;28;20031;-73
2022/10/30 07:25:20;;;;;;;17.77;8.70;;;12.00;99.90;;;;;;5113230;28;20028;-73
2022/10/30 07:27:48;;;;;;;15.95;8.85;;;12.00;99.90;;;;;;5112399;28;20106;-73
2022/10/30 07:30:15;;;;;;;17.30;8.85;;;12.00;99.90;;;;;;5112459;28;20047;-72
2022/10/30 07:32:42;;;;;;;12.35;8.68;;;12.00;99.90;;;;;;5112147;28;20026;-72
2022/10/30 07:35:09;;;;;;;15.30;8.80;;;12.00;99.90;;;;;;5112482;28;20114;-75
2022/10/30 07:37:35;;;;;;;12.82;8.73;;;12.00;99.90;;;;;;5112521;28;20033;-72
2022/10/30 07:40:01;;;;;;;16.02;9.75;;;12.00;99.90;;;;;;5112453;28;20454;-73
2022/10/30 07:42:27;;;;;;;14.13;8.63;;;12.00;99.90;;;;;;5112153;28;20126;-72
2022/10/30 07:44:52;;;;;;;13.63;8.88;;;12.00;99.90;;;;;;5111071;28;20114;-73
2022/10/30 07:47:18;;;;;;;13.82;9.10;;;12.00;99.90;;;;;;5112730;28;20027;-72
2022/10/30 07:49:44;;;;;;;11.98;8.45;;;12.00;99.90;;;;;;5111620;28;20384;-73
2022/10/30 07:52:09;;;;;;;12.70;8.45;;;12.00;99.90;;;;;;5110696;28;20456;-74
2022/10/30 07:54:35;;;;;;;13.32;8.82;;;12.00;99.90;;;;;;5109831;28;20023;-74
2022/10/30 07:57:00;;;;;;;11.80;8.68;;;12.00;99.90;;;;;;5110566;28;20028;-73
2022/10/30 07:59:26;;;;;;;11.85;8.30;;;12.00;99.90;;;;;;5110882;28;20016;-72
2022/10/30 08:01:52;;;;;;;14.15;9.50;;;12.10;99.90;;;;;;5111076;28;20031;-76
2022/10/30 08:04:17;;;;;;;11.90;8.55;;;12.10;99.90;;;;;;5112663;28;20098;-74
2022/10/30 08:06:43;;;;;;;12.00;8.88;;;12.10;99.90;;;;;;5111919;28;20030;-72
2022/10/30 08:09:09;;;;;;;11.13;8.38;;;12.10;99.90;;;;;;5111926;28;20379;-71
2022/10/30 08:11:34;;;;;;;11.00;8.00;;;12.10;99.90;;;;;;5114055;28;20027;-71
2022/10/30 08:14:00;;;;;;;10.57;7.97;;;12.10;99.90;;;;;;5115170;28;20469;-74
2022/10/30 08:16:26;;;;;;;21.23;8.07;;;12.20;99.90;;;;;;5115924;28;20031;-74
2022/10/30 08:18:52;;;;;;;14.13;8.32;;;12.20;99.90;;;;;;5115828;28;20027;-77
2022/10/30 08:21:17;;;;;;;13.10;8.23;;;12.20;99.90;;;;;;5116005;28;20084;-74
2022/10/30 08:23:43;;;;;;;12.65;7.93;;;12.20;99.90;;;;;;5115612;28;20506;-69
2022/10/30 08:26:08;;;;;;;17.73;8.35;;;12.20;99.90;;;;;;5115825;28;20038;-74
2022/10/30 08:28:34;;;;;;;13.43;8.35;;;12.20;99.90;;;;;;5115409;28;20028;-71
2022/10/30 08:31:01;;;;;;;39.50;9.45;;;12.20;99.90;;;;;;5115364;28;20024;-76
2022/10/30 08:33:27;;;;;;;13.60;8.68;;;12.30;99.90;;;;;;5115787;28;20058;-72
2022/10/30 08:35:55;;;;;;;12.63;8.10;;;12.30;99.90;;;;;;5114790;28;20118;-72
2022/10/30 08:38:22;;;;;;;11.75;8.43;;;12.30;99.90;;;;;;5114827;28;20370;-73
2022/10/30 08:40:48;;;;;;;12.02;8.63;;;12.30;99.90;;;;;;5115134;28;20432;-74
2022/10/30 08:43:13;;;;;;;12.77;8.48;;;12.30;99.90;;;;;;5115776;28;20107;-73
2022/10/30 08:45:40;;;;;;;14.63;8.85;;;12.30;99.90;;;;;;5115315;28;20545;-74
2022/10/30 08:48:08;;;;;;;14.82;8.88;;;12.20;99.90;;;;;;5114120;28;20480;-73
2022/10/30 08:50:34;;;;;;;12.30;8.68;;;12.20;99.90;;;;;;5124842;27;20015;-73
2022/10/30 08:53:04;;;;;;;12.13;8.50;;;12.30;99.90;;;;;;5136157;27;20408;-74
2022/10/30 08:55:31;;;;;;;13.85;9.27;;;12.30;99.90;;;;;;5136486;27;20058;-74
2022/10/30 08:57:56;;;;;;;12.57;8.90;;;12.30;99.90;;;;;;5135528;27;20447;-74
2022/10/30 09:00:22;;;;;;;13.88;8.80;;;12.30;99.90;;;;;;5135795;27;20083;-74
2022/10/30 09:02:48;;;;;;;12.57;9.32;;;12.40;99.90;;;;;;5135483;27;20032;-74
2022/10/30 09:05:14;;;;;;;12.63;8.93;;;12.30;99.90;;;;;;5135520;27;20019;-73
2022/10/30 09:07:39;;;;;;;12.65;8.55;;;12.40;99.90;;;;;;5134460;27;20019;-74
2022/10/30 09:10:06;;;;;;;13.63;9.55;;;12.40;99.90;;;;;;5135229;27;20520;-74
2022/10/30 09:12:31;;;;;;;16.20;11.00;;;12.40;99.90;;;;;;5135518;27;20098;-74
2022/10/30 09:14:57;;;;;;;16.95;11.23;;;12.50;99.90;;;;;;5134764;27;20152;-73
2022/10/30 09:17:23;;;;;;;14.30;10.45;;;12.50;99.90;;;;;;5127419;27;20079;-75
2022/10/30 09:19:49;;;;;;;18.23;10.30;;;12.50;99.90;;;;;;5112533;28;20464;-75
2022/10/30 09:22:14;;;;;;;15.07;10.32;;;12.50;99.90;;;;;;5114325;28;20536;-73
2022/10/30 09:24:40;;;;;;;15.50;11.32;;;12.50;99.90;;;;;;5114527;28;20019;-74
2022/10/30 09:27:06;;;;;;;16.75;11.60;;;12.60;99.90;;;;;;5114228;28;20096;-75
2022/10/30 09:29:32;;;;;;;15.57;11.07;;;12.60;99.90;;;;;;5114755;28;20031;-75
2022/10/30 09:31:58;;;;;;;14.73;10.25;;;12.60;99.90;;;;;;5114277;28;20031;-75
2022/10/30 09:34:24;;;;;;;13.93;9.75;;;12.70;99.90;;;;;;5114615;28;20051;-75
2022/10/30 09:36:50;;;;;;;13.45;9.27;;;12.70;99.90;;;;;;5114384;28;20027;-75
2022/10/30 09:39:16;;;;;;;14.27;10.10;;;12.70;99.90;;;;;;5114461;28;20024;-74
2022/10/30 09:42:04;;;;;;;13.13;10.32;;;12.80;99.90;;;;;;5114051;28;20043;-74
2022/10/30 09:45:03;;;;;;;13.30;10.40;;;12.80;99.90;;;;;;5114374;28;20035;-74
2022/10/30 09:47:34;;;;;;;13.70;9.82;;;12.80;99.90;;;;;;5114303;28;20046;-74
2022/10/30 09:50:21;;;;;;;14.00;10.60;;;12.80;99.90;;;;;;5113946;28;20027;-74
2022/10/30 09:53:07;;;;;;;15.10;11.00;;;12.80;99.90;;;;;;5095753;28;20042;-74
2022/10/30 09:56:11;;;;;;;14.68;10.77;;;12.90;99.90;;;;;;5114115;28;20035;-75
2022/10/30 09:58:48;;;;;;;15.77;11.52;;;12.90;99.90;;;;;;5114111;28;20028;-74
2022/10/30 10:01:20;;;;;;;14.00;10.30;;;12.90;99.90;;;;;;5114283;28;20028;-74
2022/10/30 10:04:04;;;;;;;15.25;10.73;;;12.90;99.90;;;;;;5114051;27;20030;-74
2022/10/30 10:06:32;;;;;;;13.85;10.70;;;12.90;99.90;;;;;;5114028;28;20115;-73
2022/10/30 10:09:18;;;;;;;15.60;11.10;;;13.00;99.90;;;;;;5112288;28;20023;-76
2022/10/30 10:11:54;;;;;;;13.52;10.95;;;13.00;99.90;;;;;;5093159;28;20024;-74
2022/10/30 10:14:34;;;;;;;15.98;11.27;;;13.10;99.90;;;;;;5096600;28;20441;-74
2022/10/30 10:17:03;;;;;;;15.00;11.10;;;13.10;99.90;;;;;;5112916;28;20047;-75
2022/10/30 10:19:38;;;;;;;15.10;11.65;;;13.10;99.90;;;;;;5113606;28;20055;-74
2022/10/30 10:22:23;;;;;;;15.10;11.23;;;13.20;99.90;;;;;;5112347;28;20023;-74
2022/10/30 10:24:48;;;;;;;16.90;11.68;;;13.10;99.90;;;;;;5112769;28;20023;-74
2022/10/30 10:27:20;;;;;;;14.27;10.98;;;13.10;99.90;;;;;;5113433;28;20043;-74
2022/10/30 10:29:55;;;;;;;16.50;12.38;;;13.20;99.90;;;;;;5113537;28;20528;-74
2022/10/30 10:32:27;;;;;;;14.63;11.20;;;13.20;99.90;;;;;;5113430;28;20451;-77
2022/10/30 10:35:05;;;;;;;13.77;11.25;;;13.20;99.90;;;;;;5112392;28;20047;-77
2022/10/30 10:37:48;;;;;;;15.77;11.40;;;13.20;99.90;;;;;;5113278;28;20028;-77
2022/10/30 10:40:32;;;;;;;13.68;10.07;;;13.20;99.90;;;;;;5113004;28;20027;-77
2022/10/30 10:43:00;;;;;;;15.05;10.20;;;13.30;99.90;;;;;;5112497;28;20059;-78
2022/10/30 10:45:52;;;;;;;12.48;10.43;;;13.30;99.90;;;;;;5112194;28;20061;-77
2022/10/30 10:48:51;;;;;;;12.00;9.80;;;13.30;99.90;;;;;;5112059;28;20482;-77
2022/10/30 10:51:22;;;;;;;12.68;9.88;;;13.30;99.90;;;;;;5109948;28;20433;-78
2022/10/30 10:53:52;;;;;;;11.73;9.30;;;13.30;99.90;;;;;;5110504;28;20474;-78
2022/10/30 10:56:23;;;;;;;12.88;10.27;;;13.30;99.90;;;;;;5111497;28;20065;-78
2022/10/30 10:58:53;;;;;;;12.85;10.35;;;13.20;99.90;;;;;;5112691;28;20024;-78
2022/10/30 11:01:44;;;;;;;14.63;10.52;;;13.30;99.90;;;;;;5112008;28;20472;-77
2022/10/30 11:04:14;;;;;;;;;;;13.30;99.90;;;;;;5109512;28;20016;-77
2022/10/30 11:06:45;;;;;;;14.13;10.75;;;13.30;99.90;;;;;;5111678;28;19947;-75
2022/10/30 11:09:18;;;;;;;20.63;11.05;;;13.30;99.90;;;;;;5112512;28;20055;-75
2022/10/30 11:11:45;;;;;;;13.85;10.63;;;13.30;99.90;;;;;;5112836;28;20379;-76
2022/10/30 11:14:28;;;;;;;16.67;11.75;;;13.30;99.90;;;;;;5112480;28;20020;-76
2022/10/30 11:17:19;;;;;;;14.57;11.48;;;13.30;99.90;;;;;;5111586;28;20054;-78
2022/10/30 11:19:48;;;;;;;14.65;11.63;;;13.30;99.90;;;;;;5112025;28;20118;-77
2022/10/30 11:22:33;;;;;;;14.23;11.70;;;13.30;99.90;;;;;;5111555;28;20093;-77
2022/10/30 11:25:19;;;;;;;16.73;12.10;;;13.30;99.90;;;;;;5111431;28;20035;-77
2022/10/30 11:27:53;;;;;;;21.15;13.25;;;13.30;99.90;;;;;;5111817;28;20023;-76
2022/10/30 11:30:21;;;;;;;18.17;13.65;;;13.30;99.90;;;;;;5111700;28;20055;-77
2022/10/30 11:32:47;;;;;;;20.00;14.10;;;13.30;99.90;;;;;;5111506;28;20069;-75
2022/10/30 11:35:16;;;;;;;21.70;14.95;;;13.20;99.90;;;;;;5111428;28;20023;-77
2022/10/30 11:37:44;;;;;;;23.40;16.55;;;13.20;99.90;;;;;;5111977;28;20161;-76
2022/10/30 11:40:10;;;;;;;25.65;17.77;;;13.20;99.90;;;;;;5111442;28;20039;-76
2022/10/30 11:42:37;;;;;;;24.10;17.95;;;13.20;99.90;;;;;;5111641;28;20110;-76
2022/10/30 11:45:04;;;;;;;28.58;20.13;;;13.20;99.90;;;;;;5111926;28;20061;-77
2022/10/30 11:47:36;;;;;;;31.95;23.75;;;13.10;99.90;;;;;;5115341;28;20020;-77
2022/10/30 11:50:06;;;;;;;37.97;26.77;;;13.10;99.90;;;;;;5115053;28;20055;-77
2022/10/30 11:52:39;;;;;;;42.90;30.40;;;13.10;99.90;;;;;;5115630;28;20520;-76
2022/10/30 11:55:17;;;;;;;44.42;30.27;;;13.00;99.90;;;;;;5114939;28;20028;-76
2022/10/30 11:57:50;;;;;;;50.80;32.20;;;13.00;99.90;;;;;;5114299;28;20073;-77
2022/10/30 12:00:20;;;;;;;49.00;33.25;;;13.00;99.90;;;;;;5115059;28;20084;-75
2022/10/30 12:02:50;;;;;;;50.13;33.58;;;13.00;99.90;;;;;;5115504;28;20467;-75
2022/10/30 12:05:24;;;;;;;46.95;33.22;;;13.00;99.90;;;;;;5114866;28;20031;-75
2022/10/30 12:08:05;;;;;;;43.65;31.45;;;13.00;99.90;;;;;;5115371;28;20049;-77
2022/10/30 12:10:33;;;;;;;46.58;33.35;;;13.00;99.90;;;;;;5113651;28;20035;-76
2022/10/30 12:13:04;;;;;;;49.90;32.25;;;13.00;99.90;;;;;;5115399;28;20051;-77
2022/10/30 12:15:36;;;;;;;44.13;31.50;;;13.00;99.90;;;;;;5116159;28;20035;-77
2022/10/30 12:18:06;;;;;;;43.30;31.55;;;12.90;99.90;;;;;;5115766;28;20024;-75
2022/10/30 12:20:35;;;;;;;43.30;29.90;;;13.00;99.90;;;;;;5116048;28;20024;-76
2022/10/30 12:23:23;;;;;;;46.10;32.60;;;13.00;99.90;;;;;;5115569;28;20027;-76
2022/10/30 12:25:52;;;;;;;46.03;32.47;;;13.00;99.90;;;;;;5115786;28;20139;-77
2022/10/30 12:28:20;;;;;;;48.10;33.15;;;13.00;99.90;;;;;;5115343;28;20418;-76
2022/10/30 12:31:01;;;;;;;46.92;32.28;;;13.00;99.90;;;;;;5115566;28;20062;-76
2022/10/30 12:33:49;;;;;;;51.88;35.33;;;13.00;99.90;;;;;;5112295;28;20035;-77
2022/10/30 12:36:28;;;;;;;49.85;34.90;;;13.00;99.90;;;;;;5109257;28;20042;-75
2022/10/30 12:39:15;;;;;;;49.45;35.17;;;13.00;99.90;;;;;;5114629;28;20487;-77